Latest Weather Observations for Nowra

IDN60901

Issued at 1:02 am EDT Saturday 31 January 2015 (issued every 10 minutes, with the page automatically refreshed every 10 minutes)

About weather observations | Map of Canberra area stations | Latest observations for Canberra area | Other Formats
Station Details ID: 068072 Name: NOWRA RAN AIR STATION AWS Lat: -34.95 Lon: 150.54 Height: 109.0 m
Data from the previous 72 hours. | See also: Recent months at Nowra
Date/Time
EDT
Tmp

°C
App
Tmp
°C
Dew
Point
°C
Rel
Hum
%
Delta-T

°C
Wind Press
QNH
hPa
Press
MSL
hPa
Rain
since
9 am
mm
Dir
 
Spd
km/h
Gust
km/h
Spd
kts
Gust
kts
30/11:30pm 15.9 15.8 13.9 88 1.1 W 7 9 4 5 1007.9 - 0.8
30/11:00pm 16.2 16.3 14.0 87 1.3 WNW 6 9 3 5 1007.9 - 0.8
30/10:30pm 16.4 16.8 15.4 94 0.6 WSW 7 9 4 5 1008.0 - 0.8
30/10:00pm 15.3 15.3 14.2 93 0.6 WSW 7 9 4 5 1008.0 - 0.8
30/09:30pm 15.9 16.8 14.1 89 1.0 SSW 2 7 1 4 1008.0 - 0.8
30/09:00pm 17.6 19.1 14.7 83 1.7 CALM 0 0 0 0 1007.7 1007.3 0.8
30/08:30pm 18.2 18.5 14.5 79 2.1 S 6 9 3 5 1007.1 - 0.8
30/08:00pm 18.6 18.2 14.1 75 2.6 S 9 11 5 6 1007.0 - 0.8
30/07:30pm 19.3 19.5 14.6 74 2.7 S 7 9 4 5 1006.8 - 0.8
30/07:00pm 19.0 18.1 14.9 77 2.4 SSE 13 13 7 7 1006.5 - 0.8
30/06:30pm 19.6 19.9 15.0 75 2.7 SSW 7 9 4 5 1006.2 - 0.8
30/06:03pm 19.4 18.7 15.5 78 2.3 S 13 17 7 9 1006.0 - 0.8
30/05:45pm 19.3 19.4 15.4 78 2.3 S 9 13 5 7 1006.1 - 0.6
30/05:30pm 20.2 18.7 14.1 68 3.5 SSE 15 19 8 10 1005.8 - 0.0
30/05:00pm 23.3 19.7 9.7 42 7.4 WSW 19 26 10 14 1005.7 - 0.0
30/04:30pm 23.4 19.2 9.8 42 7.4 WSW 22 28 12 15 1005.9 - 0.0
30/04:00pm 23.6 19.8 9.2 40 7.8 SW 19 26 10 14 1005.8 - 0.0
30/03:30pm 23.4 19.1 7.9 37 8.2 SW 20 26 11 14 1005.7 - 0.0
30/03:00pm 23.2 18.6 8.1 38 8.0 WSW 22 30 12 16 1005.8 1005.4 0.0
30/02:30pm 24.4 20.5 8.8 37 8.4 SSW 19 37 10 20 1005.8 - 0.0
30/02:00pm 23.7 20.8 9.7 41 7.7 SW 15 24 8 13 1006.1 - 0.0
30/01:00pm 22.6 18.4 9.7 44 7.0 SSW 22 33 12 18 1007.0 - 0.0
30/12:30pm 21.6 17.5 8.8 44 6.8 SW 20 26 11 14 1007.4 - 0.0
30/12:00pm 21.5 17.7 9.1 45 6.6 S 19 28 10 15 1007.9 1007.5 0.0
30/11:30am 19.9 16.4 8.6 48 5.9 WNW 17 24 9 13 1008.5 - 0.0
30/10:30am 17.1 13.5 8.5 57 4.4 W 17 20 9 11 1009.2 - 0.0
30/10:00am 17.0 12.9 7.9 55 4.6 W 19 24 10 13 1009.2 - 0.0
30/09:45am 16.9 12.7 7.5 54 4.7 W 19 24 10 13 1009.2 - 0.0
30/09:30am 17.0 12.9 7.9 55 4.6 W 19 26 10 14 1009.3 - 0.0
30/09:00am 17.3 13.4 7.1 51 5.1 W 17 24 9 13 1009.3 1009.0 0.2
30/08:30am 16.5 13.1 9.0 61 3.9 NW 17 24 9 13 1009.2 - 0.2
30/07:30am 13.8 10.1 8.0 68 2.9 NW 17 20 9 11 1009.2 - 0.2
30/07:00am 12.7 9.3 7.8 72 2.4 NW 15 17 8 9 1009.0 - 0.2
30/06:30am 11.8 8.7 7.3 74 2.2 NW 13 15 7 8 1008.9 - 0.2
30/05:30am 12.6 8.7 7.3 70 2.6 WNW 17 20 9 11 1008.8 - 0.2
30/05:00am 12.2 8.4 7.7 74 2.2 WNW 17 20 9 11 1008.9 - 0.2
30/04:30am 12.4 8.6 7.7 73 2.3 WNW 17 19 9 10 1008.9 - 0.2
30/04:00am 12.6 8.9 8.1 74 2.2 WNW 17 20 9 11 1009.4 - 0.2
30/03:30am 12.4 9.2 8.3 76 2.0 WNW 15 17 8 9 1009.6 - 0.2
30/03:00am 11.8 8.7 8.8 82 1.5 NW 15 17 8 9 1009.9 1009.6 0.2
30/02:30am 11.9 9.3 9.3 84 1.3 NW 13 17 7 9 1010.0 - 0.2
30/02:00am 12.5 9.7 8.6 77 2.0 NW 13 15 7 8 1010.3 - 0.2
30/01:30am 13.2 10.5 8.9 75 2.2 WNW 13 15 7 8 1010.6 - 0.2
30/01:00am 13.2 10.8 8.7 74 2.3 W 11 15 6 8 1010.9 - 0.2
30/12:30am 13.6 11.2 8.7 72 2.5 W 11 13 6 7 1011.3 - 0.2
30/12:00am 14.2 11.4 8.4 68 2.9 W 13 13 7 7 1011.6 1011.3 0.2
 
Date/Time
EDT
Tmp

°C
App
Tmp
°C
Dew
Point
°C
Rel
Hum
%
Delta-T

°C
Wind Press
QNH
hPa
Press
MSL
hPa
Rain
since
9 am
mm
Dir
 
Spd
km/h
Gust
km/h
Spd
kts
Gust
kts
29/11:30pm 14.9 11.7 8.6 66 3.2 WSW 15 20 8 11 1011.9 - 0.2
29/11:00pm 15.4 12.0 9.1 66 3.2 WSW 17 28 9 15 1012.1 - 0.2
29/10:30pm 14.7 12.7 10.1 74 2.4 W 11 13 6 7 1012.2 - 0.2
29/10:00pm 15.4 12.5 9.7 69 3.0 SW 15 19 8 10 1012.4 - 0.2
29/09:30pm 15.9 12.7 10.0 68 3.1 SSW 17 24 9 13 1012.2 - 0.2
29/09:00pm 15.5 13.2 10.5 72 2.7 SW 13 20 7 11 1012.2 1011.9 0.2
29/08:30pm 15.9 13.6 10.4 70 2.9 SW 13 17 7 9 1012.1 - 0.2
29/08:00pm 17.3 13.7 10.0 62 3.9 S 19 26 10 14 1011.9 - 0.2
29/07:30pm 18.4 13.7 10.5 60 4.3 S 26 35 14 19 1011.6 - 0.2
29/07:00pm 18.8 14.1 10.6 59 4.4 S 26 35 14 19 1011.5 - 0.2
29/06:30pm 19.0 15.5 10.8 59 4.5 S 20 32 11 17 1011.2 - 0.2
29/06:00pm 20.2 14.5 11.1 56 5.0 S 32 46 17 25 1010.9 - 0.2
29/05:30pm 20.5 14.4 9.7 50 5.8 S 32 46 17 25 1010.9 - 0.2
29/05:00pm 21.1 17.6 10.9 52 5.6 S 20 33 11 18 1011.0 - 0.2
29/04:30pm 19.9 15.0 11.4 58 4.7 S 28 39 15 21 1011.4 - 0.2
29/04:00pm 21.0 17.8 11.1 53 5.5 SSE 19 26 10 14 1011.3 - 0.2
29/03:30pm 21.8 16.3 9.0 44 6.8 S 28 41 15 22 1011.4 - 0.2
29/03:00pm 22.0 17.8 9.9 46 6.6 SSW 22 32 12 17 1011.8 1011.5 0.2
29/02:30pm 21.3 18.0 10.8 51 5.8 SSW 19 26 10 14 1012.1 - 0.2
29/02:00pm 20.3 15.7 9.8 51 5.6 SSW 24 32 13 17 1012.4 - 0.2
29/01:30pm 19.5 15.0 10.0 54 5.1 S 24 35 13 19 1012.7 - 0.2
29/01:00pm 18.8 15.0 9.0 53 5.1 S 19 26 10 14 1013.3 - 0.0
29/12:30pm 19.1 14.6 8.7 51 5.4 S 22 32 12 17 1013.4 - 0.0
29/12:00pm 19.3 13.5 8.0 48 5.8 SSW 28 35 15 19 1013.5 1013.1 0.0
29/11:30am 19.9 14.5 7.9 46 6.2 SSW 26 37 14 20 1013.3 - 0.0
29/11:00am 19.3 13.1 8.0 48 5.8 SSW 30 41 16 22 1013.5 - 0.0
29/10:30am 19.7 13.1 8.4 48 5.9 SSW 33 46 18 25 1013.6 - 0.0
29/10:00am 19.3 13.6 8.3 49 5.7 SSW 28 39 15 21 1013.7 - 0.0
29/09:30am 18.3 13.0 8.6 53 5.0 SSW 26 44 14 24 1013.9 - 0.0
29/09:00am 17.9 12.5 8.2 53 5.0 SSW 26 41 14 22 1014.1 1013.7 0.6
29/08:30am 16.9 11.1 7.8 55 4.6 SSW 28 43 15 23 1014.1 - 0.6
29/08:00am 16.3 10.4 7.3 55 4.5 SSW 28 39 15 21 1013.9 - 0.6
29/07:30am 15.7 13.2 8.0 60 3.9 SW 11 24 6 13 1013.8 - 0.6
29/07:00am 14.8 11.0 7.4 61 3.7 WSW 17 28 9 15 1013.6 - 0.6
29/06:30am 14.3 10.0 7.1 62 3.5 SW 19 33 10 18 1013.3 - 0.6
29/06:00am 13.9 10.0 7.2 64 3.3 SW 17 26 9 14 1013.1 1012.8 0.6
29/05:30am 14.4 10.3 7.7 64 3.3 SW 19 26 10 14 1013.0 - 0.6
29/05:00am 14.4 10.4 8.4 67 3.0 SW 19 26 10 14 1012.9 - 0.6
29/04:30am 14.5 11.1 9.1 70 2.8 SW 17 24 9 13 1013.0 - 0.6
29/04:00am 14.5 11.6 9.5 72 2.6 SW 15 28 8 15 1013.3 - 0.6
29/03:30am 14.8 11.6 10.0 73 2.5 SW 17 22 9 12 1013.4 - 0.6
29/03:00am 14.6 11.7 11.0 79 1.9 SW 17 24 9 13 1013.5 1013.1 0.6
29/02:30am 14.8 11.2 10.6 76 2.2 SSW 20 33 11 18 1014.0 - 0.6
29/02:00am 14.5 11.0 10.9 79 1.9 SSW 20 33 11 18 1014.1 - 0.6
29/01:30am 14.8 10.3 11.4 80 1.8 SSW 26 35 14 19 1014.4 - 0.6
29/01:12am 14.7 9.9 11.8 83 1.6 SSW 28 48 15 26 1014.6 - 0.6
29/01:00am 15.2 12.0 11.8 80 1.8 SSW 20 28 11 15 1014.7 - 0.6
29/12:30am 14.7 11.5 12.0 84 1.5 SW 20 26 11 14 1014.9 - 0.6
29/12:00am 15.2 11.3 12.1 82 1.7 SSW 24 37 13 20 1015.2 1014.8 0.6
 
Date/Time
EDT
Tmp

°C
App
Tmp
°C
Dew
Point
°C
Rel
Hum
%
Delta-T

°C
Wind Press
QNH
hPa
Press
MSL
hPa
Rain
since
9 am
mm
Dir
 
Spd
km/h
Gust
km/h
Spd
kts
Gust
kts
28/11:30pm 15.4 12.4 12.7 84 1.5 SSW 20 28 11 15 1015.2 - 0.6
28/11:00pm 15.4 13.0 12.5 83 1.6 SW 17 20 9 11 1015.2 - 0.6
28/10:30pm 15.7 12.0 12.6 82 1.7 SSW 24 30 13 16 1015.4 - 0.6
28/10:00pm 16.4 12.6 12.4 77 2.2 S 24 32 13 17 1015.8 - 0.6
28/09:30pm 16.5 14.1 12.8 79 2.1 SSW 17 24 9 13 1015.4 - 0.6
28/09:00pm 16.5 15.4 13.0 80 2.0 SW 11 15 6 8 1015.2 1014.8 0.6
28/08:30pm 17.1 16.2 13.6 80 2.0 SW 11 17 6 9 1015.2 - 0.6
28/08:00pm 17.7 16.4 13.8 78 2.2 SSW 13 17 7 9 1015.0 - 0.6
28/07:30pm 18.0 15.9 13.5 75 2.6 SSW 17 24 9 13 1014.9 - 0.6
28/07:00pm 18.2 16.2 13.9 76 2.5 SSW 17 26 9 14 1014.8 - 0.6
28/06:30pm 18.9 15.5 12.4 66 3.6 S 22 32 12 17 1014.6 - 0.6
28/06:00pm 19.4 15.9 12.2 63 4.0 S 22 33 12 18 1014.6 - 0.6
28/05:30pm 20.4 17.4 12.4 60 4.5 S 20 30 11 16 1014.5 - 0.6
28/05:00pm 19.4 15.1 10.7 57 4.7 S 24 35 13 19 1014.6 - 0.6
28/04:30pm 19.5 16.4 12.3 63 4.0 S 20 33 11 18 1014.7 - 0.6
28/04:00pm 19.5 16.9 13.2 67 3.6 S 19 26 10 14 1014.7 - 0.6
28/03:30pm 18.9 15.4 13.3 70 3.2 S 24 33 13 18 1014.8 - 0.6
28/03:00pm 20.8 17.3 13.5 63 4.2 S 24 32 13 17 1014.7 1014.3 0.6
28/02:30pm 20.5 17.9 13.7 65 3.9 S 20 35 11 19 1014.9 - 0.6
28/02:00pm 19.7 16.9 12.7 64 4.0 SSW 19 26 10 14 1015.2 - 0.6
28/01:30pm 19.4 16.6 12.7 65 3.8 SSW 19 26 10 14 1015.4 - 0.6
28/12:53pm 17.1 11.5 13.2 78 2.2 SSE 35 50 19 27 1015.7 - 0.6
28/12:30pm 19.7 17.3 14.3 71 3.1 S 20 32 11 17 1015.4 - 0.4
28/12:00pm 19.1 17.7 16.9 87 1.3 S 20 30 11 16 1015.5 - 0.4
28/11:24am 17.2 14.8 15.5 90 1.0 S 22 33 12 18 1015.7 - 0.4
28/11:00am 17.9 15.5 15.3 85 1.5 S 22 28 12 15 1015.6 - 0.0
28/10:30am 17.6 15.6 15.4 87 1.3 SSW 20 22 11 12 1015.5 - 0.0
28/10:00am 17.4 15.5 15.7 90 1.0 SSW 20 28 11 15 1015.3 - 0.0
28/09:30am 17.2 14.9 14.7 85 1.4 S 20 30 11 16 1015.2 - 0.0
28/09:00am 17.6 15.4 14.9 84 1.6 S 20 28 11 15 1014.8 1014.4 27.0
28/08:30am 16.8 14.7 14.8 88 1.2 S 19 28 10 15 1014.7 - 27.0
28/08:00am 16.7 14.2 14.0 84 1.5 S 20 28 11 15 1014.5 - 27.0
28/07:30am 16.5 14.0 14.2 86 1.3 SSW 20 28 11 15 1014.1 - 27.0
28/07:00am 16.5 13.5 13.8 84 1.5 SSW 22 30 12 16 1013.6 - 27.0
28/06:30am 16.2 13.3 14.0 87 1.3 SSW 22 30 12 16 1013.4 - 27.0
28/06:00am 16.1 13.3 14.3 89 1.0 SSW 22 32 12 17 1013.0 1012.7 27.0
28/05:30am 15.9 13.2 14.6 92 0.7 SSW 22 33 12 18 1013.0 - 27.0
28/05:00am 15.6 13.8 15.4 99 0.1 S 19 28 10 15 1012.9 - 27.0
28/04:30am 15.7 15.1 15.7 100 0.0 SE 13 20 7 11 1013.0 - 27.0
28/04:00am 15.5 16.2 15.5 100 0.0 SSE 6 11 3 6 1013.3 - 25.0
28/03:30am 15.5 15.2 15.5 100 0.0 SSE 11 17 6 9 1013.6 - 21.4
28/03:24am 15.6 15.0 15.6 100 0.0 SSE 13 17 7 9 1013.6 - 20.6
28/03:15am 15.6 14.6 15.6 100 0.0 SE 15 19 8 10 1013.7 - 20.0
28/03:00am 16.0 15.5 16.0 100 0.0 S 13 17 7 9 1013.8 1013.4 19.2
28/02:30am 15.7 17.2 15.7 100 0.0 SE 2 7 1 4 1014.0 - 17.6
28/02:00am 15.5 14.8 15.5 100 0.0 ESE 13 17 7 9 1014.1 - 14.6
28/01:57am 15.5 14.8 15.5 100 0.0 ESE 13 17 7 9 1014.0 - 14.4
28/01:37am 15.7 14.4 15.7 100 0.0 ESE 17 20 9 11 1014.3 - 11.8
28/01:30am 15.9 14.3 15.9 100 0.0 ESE 19 28 10 15 1014.4 - 11.2
28/01:13am 16.4 13.8 15.9 97 0.3 ESE 24 32 13 17 1014.5 - 8.4

Latest Capital City Observations: Canberra | Sydney | Melbourne | Brisbane | Adelaide | Perth | Hobart | Darwin

Other Formats:

Comma delimited format used in spreadsheet applications
http://www.bom.gov.au/fwo/IDN60903/IDN60903.94750.axf

JavaScript Object Notation format (JSON) in row-major order
http://www.bom.gov.au/fwo/IDN60903/IDN60903.94750.json